Time,TemperatureF,DewpointF,PressureIn,WindDirection,WindDirectionDegrees,WindSpeedMPH,WindSpeedGustMPH,Humidity,HourlyPrecipIn,Conditions,Clouds,dailyrainin,SolarRadiationWatts/m^2,SoftwareType,DateUTC
2013-02-03 00:21:00,22.0,3.0,-100.00,NE,53,0.0,0.0,44,0.00,,,0.00,1.000000,,2013-02-03 07:21:00,
2013-02-03 01:22:00,21.0,1.0,-100.00,NE,53,0.0,0.0,41,0.00,,,0.00,1.000000,,2013-02-03 08:22:00,
2013-02-03 02:21:00,21.0,2.0,-100.00,NE,46,0.0,0.0,43,0.00,,,0.00,1.000000,,2013-02-03 09:21:00,
2013-02-03 02:31:00,21.0,2.0,-100.00,NE,46,0.0,0.0,43,0.00,,,0.00,1.000000,,2013-02-03 09:31:00,
2013-02-03 03:21:00,20.0,2.0,-100.00,NE,55,0.0,0.0,44,0.00,,,0.00,1.000000,,2013-02-03 10:21:00,
2013-02-03 03:31:00,20.0,2.0,-100.00,NE,55,0.0,0.0,44,0.00,,,0.00,1.000000,,2013-02-03 10:31:00,
2013-02-03 04:22:00,20.0,1.0,-100.00,ENE,63,0.0,0.0,43,0.00,,,0.00,1.000000,,2013-02-03 11:22:00,
2013-02-03 05:22:00,19.0,0.0,-100.00,NE,45,0.0,0.0,42,0.00,,,0.00,1.000000,,2013-02-03 12:22:00,
2013-02-03 06:21:00,19.0,-2.0,-100.00,NE,44,0.0,0.0,38,0.00,,,0.00,1.000000,,2013-02-03 13:21:00,
2013-02-03 07:21:00,21.0,-1.0,-100.00,NE,48,0.0,0.0,37,0.00,,,0.00,1.000000,,2013-02-03 14:21:00,
2013-02-03 08:22:00,24.0,-2.0,-100.00,NE,42,0.0,0.0,31,0.00,,,0.00,7.000000,,2013-02-03 15:22:00,
2013-02-03 09:21:00,28.0,3.0,-100.00,NE,52,0.0,0.0,34,0.00,,,0.00,81.000000,,2013-02-03 16:21:00,
2013-02-03 11:23:00,35.0,2.0,-100.00,WNW,283,4.0,7.0,24,0.00,,,0.00,191.000000,,2013-02-03 18:23:00,
2013-02-03 11:32:00,35.0,2.0,-100.00,WNW,283,4.0,7.0,24,0.00,,,0.00,191.000000,,2013-02-03 18:32:00,
2013-02-03 12:22:00,39.0,10.0,-100.00,West,274,2.0,7.0,30,0.00,,,0.00,298.000000,,2013-02-03 19:22:00,
2013-02-03 12:32:00,39.0,10.0,-100.00,West,274,2.0,7.0,30,0.00,,,0.00,298.000000,,2013-02-03 19:32:00,
2013-02-03 12:41:00,39.0,10.0,-100.00,West,274,2.0,7.0,30,0.00,,,0.00,298.000000,,2013-02-03 19:41:00,
2013-02-03 12:51:00,39.0,10.0,-100.00,West,274,2.0,7.0,30,0.00,,,0.00,298.000000,,2013-02-03 19:51:00,
2013-02-03 13:21:00,37.0,13.0,-100.00,WSW,253,4.0,9.0,36,0.00,,,0.00,318.000000,,2013-02-03 20:21:00,
2013-02-03 13:32:00,37.0,13.0,-100.00,WSW,253,4.0,9.0,36,0.00,,,0.00,318.000000,,2013-02-03 20:32:00,
2013-02-03 13:42:00,37.0,13.0,-100.00,WSW,253,4.0,9.0,36,0.00,,,0.00,318.000000,,2013-02-03 20:42:00,
2013-02-03 13:52:00,37.0,13.0,-100.00,WSW,253,4.0,9.0,36,0.00,,,0.00,318.000000,,2013-02-03 20:52:00,
2013-02-03 14:21:00,34.0,15.0,-100.00,West,277,4.0,10.0,45,0.00,,,0.00,280.000000,,2013-02-03 21:21:00,
2013-02-03 14:32:00,34.0,15.0,-100.00,West,277,4.0,10.0,45,0.00,,,0.00,280.000000,,2013-02-03 21:32:00,
2013-02-03 14:42:00,34.0,15.0,-100.00,West,277,4.0,10.0,45,0.00,,,0.00,280.000000,,2013-02-03 21:42:00,
2013-02-03 14:51:00,34.0,15.0,-100.00,West,277,4.0,10.0,45,0.00,,,0.00,280.000000,,2013-02-03 21:51:00,
2013-02-03 15:21:00,33.0,23.0,-100.00,NW,319,3.0,8.0,66,0.00,,,0.00,223.000000,,2013-02-03 22:21:00,
2013-02-03 15:32:00,33.0,23.0,-100.00,NW,319,3.0,8.0,66,0.00,,,0.00,223.000000,,2013-02-03 22:32:00,
2013-02-03 15:41:00,33.0,23.0,-100.00,NW,319,3.0,8.0,66,0.00,,,0.00,223.000000,,2013-02-03 22:41:00,
2013-02-03 15:51:00,33.0,23.0,-100.00,NW,319,3.0,8.0,66,0.00,,,0.00,223.000000,,2013-02-03 22:51:00,
2013-02-03 16:22:00,30.0,24.0,-100.00,ENE,61,4.0,7.0,77,0.00,,,0.00,140.000000,,2013-02-03 23:22:00,
2013-02-03 16:32:00,30.0,24.0,-100.00,ENE,61,4.0,7.0,77,0.00,,,0.00,140.000000,,2013-02-03 23:32:00,
2013-02-03 16:41:00,30.0,24.0,-100.00,ENE,61,4.0,7.0,77,0.00,,,0.00,140.000000,,2013-02-03 23:41:00,
2013-02-03 16:52:00,30.0,24.0,-100.00,ENE,61,4.0,7.0,77,0.00,,,0.00,140.000000,,2013-02-03 23:52:00,
2013-02-03 17:22:00,29.0,26.0,-100.00,East,81,6.0,9.0,87,0.00,,,0.00,70.000000,,2013-02-04 00:22:00,
2013-02-03 17:31:00,29.0,26.0,-100.00,East,81,6.0,9.0,87,0.00,,,0.00,70.000000,,2013-02-04 00:31:00,
2013-02-03 17:41:00,29.0,26.0,-100.00,East,81,6.0,9.0,87,0.00,,,0.00,70.000000,,2013-02-04 00:41:00,
2013-02-03 17:51:00,29.0,26.0,-100.00,East,81,6.0,9.0,87,0.00,,,0.00,70.000000,,2013-02-04 00:51:00,
2013-02-03 18:21:00,28.0,25.0,-100.00,East,94,3.0,7.0,90,0.00,,,0.00,8.000000,,2013-02-04 01:21:00,
2013-02-03 18:31:00,28.0,25.0,-100.00,East,94,3.0,7.0,90,0.00,,,0.00,8.000000,,2013-02-04 01:31:00,
2013-02-03 18:41:00,28.0,25.0,-100.00,East,94,3.0,7.0,90,0.00,,,0.00,8.000000,,2013-02-04 01:41:00,
2013-02-03 18:52:00,28.0,25.0,-100.00,East,94,3.0,7.0,90,0.00,,,0.00,8.000000,,2013-02-04 01:52:00,
2013-02-03 19:21:00,28.0,26.0,-100.00,ESE,105,3.0,5.0,91,0.00,,,0.00,1.000000,,2013-02-04 02:21:00,
2013-02-03 19:31:00,28.0,26.0,-100.00,ESE,105,3.0,5.0,91,0.00,,,0.00,1.000000,,2013-02-04 02:31:00,
2013-02-03 19:41:00,28.0,26.0,-100.00,ESE,105,3.0,5.0,91,0.00,,,0.00,1.000000,,2013-02-04 02:41:00,
2013-02-03 19:52:00,28.0,26.0,-100.00,ESE,105,3.0,5.0,91,0.00,,,0.00,1.000000,,2013-02-04 02:52:00,
2013-02-03 20:21:00,27.0,25.0,-100.00,NNE,18,0.0,5.0,91,0.00,,,0.00,1.000000,,2013-02-04 03:21:00,
2013-02-03 20:32:00,27.0,25.0,-100.00,NNE,18,0.0,5.0,91,0.00,,,0.00,1.000000,,2013-02-04 03:32:00,
2013-02-03 20:41:00,27.0,25.0,-100.00,NNE,18,0.0,5.0,91,0.00,,,0.00,1.000000,,2013-02-04 03:41:00,
2013-02-03 20:51:00,27.0,25.0,-100.00,NNE,18,0.0,5.0,91,0.00,,,0.00,1.000000,,2013-02-04 03:51:00,
2013-02-03 21:21:00,24.0,22.0,-100.00,East,84,0.0,0.0,93,0.00,,,0.00,1.000000,,2013-02-04 04:21:00,
2013-02-03 21:31:00,24.0,22.0,-100.00,East,84,0.0,0.0,93,0.00,,,0.00,1.000000,,2013-02-04 04:31:00,
2013-02-03 21:41:00,24.0,22.0,-100.00,East,84,0.0,0.0,93,0.00,,,0.00,1.000000,,2013-02-04 04:41:00,
2013-02-03 21:52:00,24.0,22.0,-100.00,East,84,0.0,0.0,93,0.00,,,0.00,1.000000,,2013-02-04 04:52:00,
2013-02-03 22:22:00,22.0,20.0,-100.00,NE,50,0.0,0.0,91,0.00,,,0.00,1.000000,,2013-02-04 05:22:00,
2013-02-03 22:33:00,22.0,20.0,-100.00,NE,50,0.0,0.0,91,0.00,,,0.00,1.000000,,2013-02-04 05:33:00,
2013-02-03 22:42:00,22.0,20.0,-100.00,NE,50,0.0,0.0,91,0.00,,,0.00,1.000000,,2013-02-04 05:42:00,
2013-02-03 22:51:00,22.0,20.0,-100.00,NE,50,0.0,0.0,91,0.00,,,0.00,1.000000,,2013-02-04 05:51:00,
2013-02-03 23:21:00,20.0,18.0,-100.00,NE,37,0.0,0.0,90,0.00,,,0.00,1.000000,,2013-02-04 06:21:00,
2013-02-03 23:31:00,20.0,18.0,-100.00,NE,37,0.0,0.0,90,0.00,,,0.00,1.000000,,2013-02-04 06:31:00,
2013-02-03 23:41:00,20.0,18.0,-100.00,NE,37,0.0,0.0,90,0.00,,,0.00,1.000000,,2013-02-04 06:41:00,
2013-02-03 23:51:00,20.0,18.0,-100.00,NE,37,0.0,0.0,90,0.00,,,0.00,1.000000,,2013-02-04 06:51:00,